sensor_id;sensor_type;location;lat;lon;timestamp;P1;durP1;ratioP1;P2;durP2;ratioP2
53674;SDS011;39574;50.534;8.500;2023-09-18T00:01:18;13.2;;;6.1;;
53674;SDS011;39574;50.534;8.500;2023-09-18T00:06:18;12.7;;;6.0;;
53674;SDS011;39574;50.534;8.500;2023-09-18T00:11:18;12.8;;;6.0;;
53674;SDS011;39574;50.534;8.500;2023-09-18T00:16:17;12.1;;;5.9;;
53674;SDS011;39574;50.534;8.500;2023-09-18T00:21:16;11.3;;;5.6;;
53674;SDS011;39574;50.534;8.500;2023-09-18T00:26:16;11.8;;;5.8;;
53674;SDS011;39574;50.534;8.500;2023-09-18T00:31:18;11.9;;;6.0;;
53674;SDS011;39574;50.534;8.500;2023-09-18T00:36:16;12.7;;;6.2;;
53674;SDS011;39574;50.534;8.500;2023-09-18T00:41:14;12.4;;;6.3;;
53674;SDS011;39574;50.534;8.500;2023-09-18T00:46:14;11.8;;;6.0;;
53674;SDS011;39574;50.534;8.500;2023-09-18T00:51:13;11.4;;;6.1;;
53674;SDS011;39574;50.534;8.500;2023-09-18T00:56:13;10.8;;;6.0;;
53674;SDS011;39574;50.534;8.500;2023-09-18T01:01:12;11.4;;;5.9;;
53674;SDS011;39574;50.534;8.500;2023-09-18T01:06:12;11.9;;;5.9;;
53674;SDS011;39574;50.534;8.500;2023-09-18T01:11:13;12.1;;;6.0;;
53674;SDS011;39574;50.534;8.500;2023-09-18T01:16:13;12.4;;;6.0;;
53674;SDS011;39574;50.534;8.500;2023-09-18T01:21:10;11.1;;;5.9;;
53674;SDS011;39574;50.534;8.500;2023-09-18T01:26:10;11.3;;;5.9;;
53674;SDS011;39574;50.534;8.500;2023-09-18T01:31:09;11.3;;;6.2;;
53674;SDS011;39574;50.534;8.500;2023-09-18T01:36:09;11.2;;;6.2;;
53674;SDS011;39574;50.534;8.500;2023-09-18T01:41:09;12.3;;;6.3;;
53674;SDS011;39574;50.534;8.500;2023-09-18T01:46:08;12.6;;;6.2;;
53674;SDS011;39574;50.534;8.500;2023-09-18T01:51:09;11.9;;;6.1;;
53674;SDS011;39574;50.534;8.500;2023-09-18T01:56:07;11.6;;;6.1;;
53674;SDS011;39574;50.534;8.500;2023-09-18T02:01:07;11.5;;;6.0;;
53674;SDS011;39574;50.534;8.500;2023-09-18T02:06:06;13.9;;;6.5;;
53674;SDS011;39574;50.534;8.500;2023-09-18T02:11:06;14.0;;;6.7;;
53674;SDS011;39574;50.534;8.500;2023-09-18T02:16:09;14.1;;;6.5;;
53674;SDS011;39574;50.534;8.500;2023-09-18T02:21:05;14.0;;;6.4;;
53674;SDS011;39574;50.534;8.500;2023-09-18T02:26:04;13.2;;;6.5;;
53674;SDS011;39574;50.534;8.500;2023-09-18T02:31:04;13.3;;;6.7;;
53674;SDS011;39574;50.534;8.500;2023-09-18T02:36:03;12.4;;;6.4;;
53674;SDS011;39574;50.534;8.500;2023-09-18T02:41:03;13.4;;;7.1;;
53674;SDS011;39574;50.534;8.500;2023-09-18T02:46:02;14.5;;;7.5;;
53674;SDS011;39574;50.534;8.500;2023-09-18T02:51:05;14.7;;;7.7;;
53674;SDS011;39574;50.534;8.500;2023-09-18T02:56:01;14.6;;;7.7;;
53674;SDS011;39574;50.534;8.500;2023-09-18T03:01:01;14.5;;;7.5;;
53674;SDS011;39574;50.534;8.500;2023-09-18T03:06:02;13.4;;;7.3;;
53674;SDS011;39574;50.534;8.500;2023-09-18T03:11:00;13.7;;;7.3;;
53674;SDS011;39574;50.534;8.500;2023-09-18T03:15:59;13.2;;;7.2;;
53674;SDS011;39574;50.534;8.500;2023-09-18T03:20:59;16.2;;;7.6;;
53674;SDS011;39574;50.534;8.500;2023-09-18T03:25:58;16.1;;;7.4;;
53674;SDS011;39574;50.534;8.500;2023-09-18T03:30:58;15.7;;;7.4;;
53674;SDS011;39574;50.534;8.500;2023-09-18T03:35:57;15.3;;;7.4;;
53674;SDS011;39574;50.534;8.500;2023-09-18T03:40:58;13.9;;;7.1;;
53674;SDS011;39574;50.534;8.500;2023-09-18T03:46:02;13.5;;;7.0;;
53674;SDS011;39574;50.534;8.500;2023-09-18T03:50:56;13.2;;;6.9;;
53674;SDS011;39574;50.534;8.500;2023-09-18T03:55:55;12.7;;;6.9;;
53674;SDS011;39574;50.534;8.500;2023-09-18T04:00:55;13.7;;;7.1;;
53674;SDS011;39574;50.534;8.500;2023-09-18T04:05:54;13.4;;;7.2;;
53674;SDS011;39574;50.534;8.500;2023-09-18T04:10:54;13.8;;;6.9;;
53674;SDS011;39574;50.534;8.500;2023-09-18T04:15:53;13.2;;;6.5;;
53674;SDS011;39574;50.534;8.500;2023-09-18T04:20:54;13.9;;;6.5;;
53674;SDS011;39574;50.534;8.500;2023-09-18T04:25:53;13.1;;;6.3;;
53674;SDS011;39574;50.534;8.500;2023-09-18T04:30:52;12.3;;;6.3;;
53674;SDS011;39574;50.534;8.500;2023-09-18T04:35:51;12.7;;;6.5;;
53674;SDS011;39574;50.534;8.500;2023-09-18T04:40:57;12.7;;;6.6;;
53674;SDS011;39574;50.534;8.500;2023-09-18T04:45:50;12.5;;;6.7;;
53674;SDS011;39574;50.534;8.500;2023-09-18T04:50:50;12.4;;;6.7;;
53674;SDS011;39574;50.534;8.500;2023-09-18T04:55:49;11.7;;;6.4;;
53674;SDS011;39574;50.534;8.500;2023-09-18T05:00:53;12.2;;;6.4;;
53674;SDS011;39574;50.534;8.500;2023-09-18T05:05:49;12.2;;;6.3;;
53674;SDS011;39574;50.534;8.500;2023-09-18T05:10:48;13.2;;;6.8;;
53674;SDS011;39574;50.534;8.500;2023-09-18T05:15:47;13.2;;;6.9;;
53674;SDS011;39574;50.534;8.500;2023-09-18T05:20:47;12.5;;;6.4;;
53674;SDS011;39574;50.534;8.500;2023-09-18T05:25:46;11.7;;;6.3;;
53674;SDS011;39574;50.534;8.500;2023-09-18T05:30:46;11.8;;;6.5;;
53674;SDS011;39574;50.534;8.500;2023-09-18T05:35:45;12.3;;;7.0;;
53674;SDS011;39574;50.534;8.500;2023-09-18T05:40:46;12.4;;;6.9;;
53674;SDS011;39574;50.534;8.500;2023-09-18T05:45:44;12.5;;;6.5;;
53674;SDS011;39574;50.534;8.500;2023-09-18T05:50:44;12.4;;;5.9;;
53674;SDS011;39574;50.534;8.500;2023-09-18T05:55:43;12.9;;;6.1;;
53674;SDS011;39574;50.534;8.500;2023-09-18T06:00:43;12.4;;;6.1;;
53674;SDS011;39574;50.534;8.500;2023-09-18T06:05:42;11.9;;;6.2;;
53674;SDS011;39574;50.534;8.500;2023-09-18T06:10:42;12.0;;;6.2;;
53674;SDS011;39574;50.534;8.500;2023-09-18T06:15:43;13.1;;;6.2;;
53674;SDS011;39574;50.534;8.500;2023-09-18T06:20:41;13.9;;;6.9;;
53674;SDS011;39574;50.534;8.500;2023-09-18T06:25:40;13.8;;;7.3;;
53674;SDS011;39574;50.534;8.500;2023-09-18T06:30:40;13.3;;;7.3;;
53674;SDS011;39574;50.534;8.500;2023-09-18T06:35:41;13.3;;;7.4;;
53674;SDS011;39574;50.534;8.500;2023-09-18T06:40:39;12.1;;;6.5;;
53674;SDS011;39574;50.534;8.500;2023-09-18T06:45:38;12.8;;;6.4;;
53674;SDS011;39574;50.534;8.500;2023-09-18T06:50:38;14.1;;;7.0;;
53674;SDS011;39574;50.534;8.500;2023-09-18T06:55:37;14.2;;;7.3;;
53674;SDS011;39574;50.534;8.500;2023-09-18T07:00:37;14.6;;;7.0;;
53674;SDS011;39574;50.534;8.500;2023-09-18T07:05:36;15.1;;;5.8;;
53674;SDS011;39574;50.534;8.500;2023-09-18T07:10:38;14.4;;;4.7;;
53674;SDS011;39574;50.534;8.500;2023-09-18T07:15:35;14.7;;;4.0;;
53674;SDS011;39574;50.534;8.500;2023-09-18T07:20:35;13.2;;;3.7;;
53674;SDS011;39574;50.534;8.500;2023-09-18T07:25:35;13.2;;;3.8;;
53674;SDS011;39574;50.534;8.500;2023-09-18T07:30:34;12.6;;;3.8;;
53674;SDS011;39574;50.534;8.500;2023-09-18T07:35:34;11.8;;;3.7;;
53674;SDS011;39574;50.534;8.500;2023-09-18T07:40:33;11.4;;;3.6;;
53674;SDS011;39574;50.534;8.500;2023-09-18T07:45:33;11.5;;;3.6;;
53674;SDS011;39574;50.534;8.500;2023-09-18T07:50:32;10.7;;;3.4;;
53674;SDS011;39574;50.534;8.500;2023-09-18T07:55:32;10.5;;;3.2;;
53674;SDS011;39574;50.534;8.500;2023-09-18T08:00:31;9.8;;;3.3;;
53674;SDS011;39574;50.534;8.500;2023-09-18T08:05:31;9.6;;;3.3;;
53674;SDS011;39574;50.534;8.500;2023-09-18T08:10:30;10.1;;;3.3;;
53674;SDS011;39574;50.534;8.500;2023-09-18T08:15:30;10.6;;;3.2;;
53674;SDS011;39574;50.534;8.500;2023-09-18T08:20:31;10.2;;;3.0;;
53674;SDS011;39574;50.534;8.500;2023-09-18T08:25:29;10.2;;;3.0;;
53674;SDS011;39574;50.534;8.500;2023-09-18T08:30:31;9.4;;;2.8;;
53674;SDS011;39574;50.534;8.500;2023-09-18T08:35:30;8.9;;;2.7;;
53674;SDS011;39574;50.534;8.500;2023-09-18T08:40:28;8.0;;;2.7;;
53674;SDS011;39574;50.534;8.500;2023-09-18T08:45:31;8.9;;;2.6;;
53674;SDS011;39574;50.534;8.500;2023-09-18T08:50:27;8.4;;;2.6;;
53674;SDS011;39574;50.534;8.500;2023-09-18T08:55:27;7.8;;;2.5;;
53674;SDS011;39574;50.534;8.500;2023-09-18T09:00:26;8.4;;;2.5;;
53674;SDS011;39574;50.534;8.500;2023-09-18T09:05:26;8.3;;;2.6;;
53674;SDS011;39574;50.534;8.500;2023-09-18T09:10:27;8.5;;;2.6;;
53674;SDS011;39574;50.534;8.500;2023-09-18T09:15:26;8.0;;;2.6;;
53674;SDS011;39574;50.534;8.500;2023-09-18T09:20:25;8.6;;;2.6;;
53674;SDS011;39574;50.534;8.500;2023-09-18T09:25:25;8.1;;;2.5;;
53674;SDS011;39574;50.534;8.500;2023-09-18T09:30:24;8.3;;;2.5;;
53674;SDS011;39574;50.534;8.500;2023-09-18T09:35:25;8.8;;;2.6;;
53674;SDS011;39574;50.534;8.500;2023-09-18T09:40:24;8.1;;;2.5;;
53674;SDS011;39574;50.534;8.500;2023-09-18T09:45:23;7.8;;;2.6;;
53674;SDS011;39574;50.534;8.500;2023-09-18T09:50:22;8.3;;;2.7;;
53674;SDS011;39574;50.534;8.500;2023-09-18T09:55:22;7.9;;;2.6;;
53674;SDS011;39574;50.534;8.500;2023-09-18T10:00:21;8.1;;;2.7;;
53674;SDS011;39574;50.534;8.500;2023-09-18T10:05:21;7.6;;;2.5;;
53674;SDS011;39574;50.534;8.500;2023-09-18T10:10:20;7.8;;;2.6;;
53674;SDS011;39574;50.534;8.500;2023-09-18T10:15:20;8.2;;;2.6;;
53674;SDS011;39574;50.534;8.500;2023-09-18T10:20:21;8.3;;;2.7;;
53674;SDS011;39574;50.534;8.500;2023-09-18T10:25:20;8.2;;;2.7;;
53674;SDS011;39574;50.534;8.500;2023-09-18T10:30:19;7.8;;;2.7;;
53674;SDS011;39574;50.534;8.500;2023-09-18T10:35:20;7.7;;;2.7;;
53674;SDS011;39574;50.534;8.500;2023-09-18T10:40:19;7.2;;;2.6;;
53674;SDS011;39574;50.534;8.500;2023-09-18T10:45:17;7.0;;;2.7;;
53674;SDS011;39574;50.534;8.500;2023-09-18T10:50:26;6.9;;;2.7;;
53674;SDS011;39574;50.534;8.500;2023-09-18T10:55:16;7.3;;;2.7;;
53674;SDS011;39574;50.534;8.500;2023-09-18T11:00:16;7.3;;;2.7;;
53674;SDS011;39574;50.534;8.500;2023-09-18T11:05:35;7.4;;;2.8;;
53674;SDS011;39574;50.534;8.500;2023-09-18T11:10:31;6.9;;;2.7;;
53674;SDS011;39574;50.534;8.500;2023-09-18T11:15:32;6.8;;;2.7;;
53674;SDS011;39574;50.534;8.500;2023-09-18T11:20:16;6.8;;;2.8;;
53674;SDS011;39574;50.534;8.500;2023-09-18T11:25:30;7.7;;;2.8;;
53674;SDS011;39574;50.534;8.500;2023-09-18T11:30:13;7.6;;;2.8;;
53674;SDS011;39574;50.534;8.500;2023-09-18T11:35:13;7.0;;;2.9;;
53674;SDS011;39574;50.534;8.500;2023-09-18T11:40:27;7.1;;;3.0;;
53674;SDS011;39574;50.534;8.500;2023-09-18T11:45:16;7.2;;;3.1;;
53674;SDS011;39574;50.534;8.500;2023-09-18T11:50:12;7.4;;;3.0;;
53674;SDS011;39574;50.534;8.500;2023-09-18T11:55:11;7.6;;;2.9;;
53674;SDS011;39574;50.534;8.500;2023-09-18T12:00:18;7.4;;;3.0;;
53674;SDS011;39574;50.534;8.500;2023-09-18T12:05:10;7.0;;;2.9;;
53674;SDS011;39574;50.534;8.500;2023-09-18T12:10:10;7.0;;;3.0;;
53674;SDS011;39574;50.534;8.500;2023-09-18T12:15:10;6.4;;;3.0;;
53674;SDS011;39574;50.534;8.500;2023-09-18T12:25:09;7.2;;;3.1;;
53674;SDS011;39574;50.534;8.500;2023-09-18T12:30:09;7.3;;;3.1;;
53674;SDS011;39574;50.534;8.500;2023-09-18T12:35:08;6.8;;;3.0;;
53674;SDS011;39574;50.534;8.500;2023-09-18T12:40:20;6.7;;;2.9;;
53674;SDS011;39574;50.534;8.500;2023-09-18T12:45:07;6.6;;;2.9;;
53674;SDS011;39574;50.534;8.500;2023-09-18T12:50:07;6.4;;;2.8;;
53674;SDS011;39574;50.534;8.500;2023-09-18T12:55:06;6.8;;;2.9;;
53674;SDS011;39574;50.534;8.500;2023-09-18T13:00:08;6.7;;;3.0;;
53674;SDS011;39574;50.534;8.500;2023-09-18T13:05:06;6.9;;;3.1;;
53674;SDS011;39574;50.534;8.500;2023-09-18T13:10:06;6.6;;;3.0;;
53674;SDS011;39574;50.534;8.500;2023-09-18T13:15:06;6.4;;;3.0;;
53674;SDS011;39574;50.534;8.500;2023-09-18T13:20:08;6.0;;;3.0;;
53674;SDS011;39574;50.534;8.500;2023-09-18T13:30:05;6.3;;;3.0;;
53674;SDS011;39574;50.534;8.500;2023-09-18T13:35:04;6.8;;;3.0;;
53674;SDS011;39574;50.534;8.500;2023-09-18T13:40:04;6.7;;;3.0;;
53674;SDS011;39574;50.534;8.500;2023-09-18T13:45:04;6.9;;;3.2;;
53674;SDS011;39574;50.534;8.500;2023-09-18T13:55:03;6.5;;;3.2;;
53674;SDS011;39574;50.534;8.500;2023-09-18T14:00:04;6.4;;;3.2;;
53674;SDS011;39574;50.534;8.500;2023-09-18T14:05:02;6.8;;;3.3;;
53674;SDS011;39574;50.534;8.500;2023-09-18T14:10:07;7.1;;;3.5;;
53674;SDS011;39574;50.534;8.500;2023-09-18T14:15:02;7.0;;;3.5;;
53674;SDS011;39574;50.534;8.500;2023-09-18T14:20:01;6.6;;;3.7;;
53674;SDS011;39574;50.534;8.500;2023-09-18T14:25:01;6.8;;;3.7;;
53674;SDS011;39574;50.534;8.500;2023-09-18T14:30:00;7.1;;;3.9;;
53674;SDS011;39574;50.534;8.500;2023-09-18T14:35:00;6.8;;;3.6;;
53674;SDS011;39574;50.534;8.500;2023-09-18T14:40:00;7.1;;;3.3;;
53674;SDS011;39574;50.534;8.500;2023-09-18T14:45:00;6.5;;;2.9;;
53674;SDS011;39574;50.534;8.500;2023-09-18T14:49:59;6.3;;;2.6;;
53674;SDS011;39574;50.534;8.500;2023-09-18T14:54:59;6.3;;;2.5;;
53674;SDS011;39574;50.534;8.500;2023-09-18T14:59:59;5.7;;;2.3;;
53674;SDS011;39574;50.534;8.500;2023-09-18T15:04:59;5.2;;;2.0;;
53674;SDS011;39574;50.534;8.500;2023-09-18T15:09:58;4.8;;;1.9;;
53674;SDS011;39574;50.534;8.500;2023-09-18T15:14:58;4.8;;;2.0;;
53674;SDS011;39574;50.534;8.500;2023-09-18T15:19:59;4.8;;;2.0;;
53674;SDS011;39574;50.534;8.500;2023-09-18T15:24:59;5.8;;;2.0;;
53674;SDS011;39574;50.534;8.500;2023-09-18T15:29:57;5.9;;;1.9;;
53674;SDS011;39574;50.534;8.500;2023-09-18T15:34:57;5.2;;;1.8;;
53674;SDS011;39574;50.534;8.500;2023-09-18T15:39:58;5.7;;;2.0;;
53674;SDS011;39574;50.534;8.500;2023-09-18T15:44:57;6.0;;;2.0;;
53674;SDS011;39574;50.534;8.500;2023-09-18T15:49:56;5.8;;;2.0;;
53674;SDS011;39574;50.534;8.500;2023-09-18T15:54:59;5.9;;;2.0;;
53674;SDS011;39574;50.534;8.500;2023-09-18T15:59:56;6.3;;;2.1;;
53674;SDS011;39574;50.534;8.500;2023-09-18T16:04:56;5.8;;;2.0;;
53674;SDS011;39574;50.534;8.500;2023-09-18T16:09:56;6.1;;;1.9;;
53674;SDS011;39574;50.534;8.500;2023-09-18T16:14:56;5.7;;;1.9;;
53674;SDS011;39574;50.534;8.500;2023-09-18T16:19:55;5.5;;;1.9;;
53674;SDS011;39574;50.534;8.500;2023-09-18T16:24:55;5.7;;;2.0;;
53674;SDS011;39574;50.534;8.500;2023-09-18T16:29:55;5.3;;;1.9;;
53674;SDS011;39574;50.534;8.500;2023-09-18T16:34:55;6.0;;;2.0;;
53674;SDS011;39574;50.534;8.500;2023-09-18T16:39:54;6.4;;;1.9;;
53674;SDS011;39574;50.534;8.500;2023-09-18T16:44:54;6.3;;;2.0;;
53674;SDS011;39574;50.534;8.500;2023-09-18T16:49:54;6.2;;;2.0;;
53674;SDS011;39574;50.534;8.500;2023-09-18T16:54:53;5.3;;;2.0;;
53674;SDS011;39574;50.534;8.500;2023-09-18T16:59:53;5.4;;;2.0;;
53674;SDS011;39574;50.534;8.500;2023-09-18T17:04:53;5.5;;;2.3;;
53674;SDS011;39574;50.534;8.500;2023-09-18T17:09:52;5.4;;;2.2;;
53674;SDS011;39574;50.534;8.500;2023-09-18T17:19:52;5.0;;;2.2;;
53674;SDS011;39574;50.534;8.500;2023-09-18T17:24:51;5.2;;;2.1;;
53674;SDS011;39574;50.534;8.500;2023-09-18T17:29:51;5.5;;;2.1;;
53674;SDS011;39574;50.534;8.500;2023-09-18T17:34:51;5.5;;;2.1;;
53674;SDS011;39574;50.534;8.500;2023-09-18T17:39:52;6.4;;;2.4;;
53674;SDS011;39574;50.534;8.500;2023-09-18T17:44:50;6.5;;;2.4;;
53674;SDS011;39574;50.534;8.500;2023-09-18T17:49:51;6.7;;;2.6;;
53674;SDS011;39574;50.534;8.500;2023-09-18T17:54:50;6.4;;;2.5;;
53674;SDS011;39574;50.534;8.500;2023-09-18T17:59:49;6.1;;;2.3;;
53674;SDS011;39574;50.534;8.500;2023-09-18T18:04:48;6.0;;;2.3;;
53674;SDS011;39574;50.534;8.500;2023-09-18T18:09:48;6.1;;;2.2;;
53674;SDS011;39574;50.534;8.500;2023-09-18T18:14:47;6.1;;;2.2;;
53674;SDS011;39574;50.534;8.500;2023-09-18T18:19:47;6.0;;;2.2;;
53674;SDS011;39574;50.534;8.500;2023-09-18T18:24:47;5.8;;;2.2;;
53674;SDS011;39574;50.534;8.500;2023-09-18T18:29:46;6.3;;;2.1;;
53674;SDS011;39574;50.534;8.500;2023-09-18T18:34:46;6.1;;;2.2;;
53674;SDS011;39574;50.534;8.500;2023-09-18T18:39:45;6.2;;;2.3;;
53674;SDS011;39574;50.534;8.500;2023-09-18T18:44:47;6.8;;;2.4;;
53674;SDS011;39574;50.534;8.500;2023-09-18T18:49:45;6.5;;;2.3;;
53674;SDS011;39574;50.534;8.500;2023-09-18T18:54:44;6.3;;;2.1;;
53674;SDS011;39574;50.534;8.500;2023-09-18T18:59:44;7.2;;;2.2;;
53674;SDS011;39574;50.534;8.500;2023-09-18T19:04:43;6.7;;;2.2;;
53674;SDS011;39574;50.534;8.500;2023-09-18T19:09:43;6.8;;;2.2;;
53674;SDS011;39574;50.534;8.500;2023-09-18T19:14:42;6.2;;;2.2;;
53674;SDS011;39574;50.534;8.500;2023-09-18T19:19:42;6.6;;;2.2;;
53674;SDS011;39574;50.534;8.500;2023-09-18T19:24:41;6.6;;;2.2;;
53674;SDS011;39574;50.534;8.500;2023-09-18T19:29:41;6.3;;;2.3;;
53674;SDS011;39574;50.534;8.500;2023-09-18T19:34:41;6.3;;;2.4;;
53674;SDS011;39574;50.534;8.500;2023-09-18T19:39:40;6.2;;;2.4;;
53674;SDS011;39574;50.534;8.500;2023-09-18T19:44:40;6.0;;;2.3;;
53674;SDS011;39574;50.534;8.500;2023-09-18T19:49:39;6.0;;;2.1;;
53674;SDS011;39574;50.534;8.500;2023-09-18T19:59:38;5.7;;;2.1;;
53674;SDS011;39574;50.534;8.500;2023-09-18T20:04:38;6.1;;;2.1;;
53674;SDS011;39574;50.534;8.500;2023-09-18T20:09:39;5.8;;;2.0;;
53674;SDS011;39574;50.534;8.500;2023-09-18T20:14:37;5.9;;;2.0;;
53674;SDS011;39574;50.534;8.500;2023-09-18T20:19:36;6.3;;;2.1;;
53674;SDS011;39574;50.534;8.500;2023-09-18T20:24:36;6.4;;;2.1;;
53674;SDS011;39574;50.534;8.500;2023-09-18T20:29:36;6.2;;;2.0;;
53674;SDS011;39574;50.534;8.500;2023-09-18T20:34:35;6.0;;;1.9;;
53674;SDS011;39574;50.534;8.500;2023-09-18T20:39:35;5.3;;;1.8;;
53674;SDS011;39574;50.534;8.500;2023-09-18T20:44:36;5.6;;;1.8;;
53674;SDS011;39574;50.534;8.500;2023-09-18T20:49:35;5.1;;;1.7;;
53674;SDS011;39574;50.534;8.500;2023-09-18T20:54:33;5.4;;;1.8;;
53674;SDS011;39574;50.534;8.500;2023-09-18T20:59:33;5.5;;;1.9;;
53674;SDS011;39574;50.534;8.500;2023-09-18T21:04:32;5.3;;;1.9;;
53674;SDS011;39574;50.534;8.500;2023-09-18T21:09:32;5.2;;;1.9;;
53674;SDS011;39574;50.534;8.500;2023-09-18T21:14:31;5.1;;;1.9;;
53674;SDS011;39574;50.534;8.500;2023-09-18T21:19:32;4.8;;;1.9;;
53674;SDS011;39574;50.534;8.500;2023-09-18T21:24:31;5.9;;;1.9;;
53674;SDS011;39574;50.534;8.500;2023-09-18T21:29:31;5.6;;;1.9;;
53674;SDS011;39574;50.534;8.500;2023-09-18T21:34:30;6.1;;;2.0;;
53674;SDS011;39574;50.534;8.500;2023-09-18T21:39:28;6.4;;;2.1;;
53674;SDS011;39574;50.534;8.500;2023-09-18T21:44:27;6.4;;;2.1;;
53674;SDS011;39574;50.534;8.500;2023-09-18T21:49:27;6.1;;;2.1;;
53674;SDS011;39574;50.534;8.500;2023-09-18T21:54:30;5.4;;;2.0;;
53674;SDS011;39574;50.534;8.500;2023-09-18T21:59:27;4.7;;;1.8;;
53674;SDS011;39574;50.534;8.500;2023-09-18T22:04:25;4.2;;;1.7;;
53674;SDS011;39574;50.534;8.500;2023-09-18T22:09:25;4.5;;;1.7;;
53674;SDS011;39574;50.534;8.500;2023-09-18T22:14:24;5.0;;;1.8;;
53674;SDS011;39574;50.534;8.500;2023-09-18T22:19:23;5.0;;;1.7;;
53674;SDS011;39574;50.534;8.500;2023-09-18T22:24:23;5.1;;;1.7;;
53674;SDS011;39574;50.534;8.500;2023-09-18T22:29:24;5.3;;;1.8;;
53674;SDS011;39574;50.534;8.500;2023-09-18T22:34:22;5.0;;;1.6;;
53674;SDS011;39574;50.534;8.500;2023-09-18T22:59:20;4.7;;;1.6;;
53674;SDS011;39574;50.534;8.500;2023-09-18T23:04:18;4.8;;;1.6;;
53674;SDS011;39574;50.534;8.500;2023-09-18T23:09:18;4.9;;;1.6;;
53674;SDS011;39574;50.534;8.500;2023-09-18T23:14:19;4.9;;;1.5;;
53674;SDS011;39574;50.534;8.500;2023-09-18T23:19:16;5.7;;;1.6;;
53674;SDS011;39574;50.534;8.500;2023-09-18T23:24:16;5.8;;;1.7;;
53674;SDS011;39574;50.534;8.500;2023-09-18T23:29:15;5.8;;;1.8;;
53674;SDS011;39574;50.534;8.500;2023-09-18T23:34:15;5.7;;;1.8;;
53674;SDS011;39574;50.534;8.500;2023-09-18T23:39:14;5.3;;;1.8;;
53674;SDS011;39574;50.534;8.500;2023-09-18T23:44:13;5.9;;;1.9;;
53674;SDS011;39574;50.534;8.500;2023-09-18T23:49:13;5.9;;;2.0;;
53674;SDS011;39574;50.534;8.500;2023-09-18T23:54:12;5.8;;;1.9;;
53674;SDS011;39574;50.534;8.500;2023-09-18T23:59:12;5.7;;;2.0;;
